Time;durP1;ratioP1;P1;durP2;ratioP2;P2;SDS_P1;SDS_P2;PMS_P1;PMS_P2;Temp;Humidity;BMP_temperature;BMP_pressure;BME280_temperature;BME280_humidity;BME280_pressure;Samples;Min_cycle;Max_cycle;Signal;HPM_P1;HPM_P2
2022/01/20 00:02:05;;;;;;;14.85;2.47;;;3.30;99.90;;;;;;4996709;28;20218;-57
2022/01/20 00:23:29;;;;;;;7.68;1.63;;;3.50;99.90;;;;;;4995570;28;20233;-60
2022/01/20 00:26:01;;;;;;;9.68;1.48;;;3.50;99.90;;;;;;4995643;28;20607;-60
2022/01/20 00:28:39;;;;;;;6.40;1.58;;;3.60;99.90;;;;;;4995804;28;20214;-60
2022/01/20 00:31:26;;;;;;;6.07;2.13;;;3.60;99.90;;;;;;4995756;28;20178;-60
2022/01/20 00:34:07;;;;;;;11.18;1.70;;;3.60;99.90;;;;;;4995118;28;20631;-60
2022/01/20 00:39:01;;;;;;;12.48;1.77;;;3.50;99.90;;;;;;4995562;28;20177;-59
2022/01/20 00:41:27;;;;;;;7.60;1.33;;;3.40;99.90;;;;;;4995230;28;20173;-60
2022/01/20 00:43:52;;;;;;;7.88;1.65;;;3.40;99.90;;;;;;4995913;28;20175;-59
2022/01/20 00:46:18;;;;;;;3.85;1.42;;;3.30;99.90;;;;;;4995536;28;20171;-59
2022/01/20 00:48:44;;;;;;;11.30;1.70;;;3.30;99.90;;;;;;4995099;28;20175;-59
2022/01/20 00:51:09;;;;;;;6.72;1.27;;;3.30;99.90;;;;;;4995175;28;20182;-59
2022/01/20 00:53:35;;;;;;;11.13;1.65;;;3.30;99.90;;;;;;4995012;28;20191;-59
2022/01/20 00:56:00;;;;;;;10.13;1.60;;;3.30;99.90;;;;;;4995146;28;20163;-58
2022/01/20 00:58:26;;;;;;;6.25;1.60;;;3.30;99.90;;;;;;4995162;28;20167;-58
2022/01/20 01:00:52;;;;;;;8.18;1.50;;;3.30;99.90;;;;;;4994747;28;20498;-59
2022/01/20 01:03:18;;;;;;;4.20;1.35;;;3.30;99.90;;;;;;4994573;28;20197;-59
2022/01/20 01:06:21;;;;;;;4.72;1.48;;;3.20;99.90;;;;;;4995038;28;20642;-58
2022/01/20 01:08:29;;;;;;;7.30;1.50;;;3.10;99.90;;;;;;4995000;28;20182;-59
2022/01/20 01:10:55;;;;;;;7.43;1.38;;;3.10;99.90;;;;;;4994911;28;20259;-59
2022/01/20 01:13:22;;;;;;;6.80;1.50;;;3.00;99.90;;;;;;4994618;28;20529;-59
2022/01/20 01:15:49;;;;;;;9.70;1.52;;;2.90;99.90;;;;;;4994813;28;20262;-59
2022/01/20 01:23:40;;;;;;;3.95;1.00;;;2.70;99.90;;;;;;4994884;28;20179;-59
2022/01/20 01:26:11;;;;;;;9.27;1.77;;;2.70;99.90;;;;;;4994686;28;20158;-59
2022/01/20 01:28:37;;;;;;;4.88;1.40;;;2.60;99.90;;;;;;4994695;28;20261;-59
2022/01/20 01:33:56;;;;;;;5.35;1.40;;;2.60;99.90;;;;;;4994398;28;20582;-59
2022/01/20 01:36:23;;;;;;;7.53;1.45;;;2.70;99.90;;;;;;4994649;28;20174;-59
2022/01/20 01:38:49;;;;;;;5.28;1.13;;;2.70;99.90;;;;;;4994225;28;20457;-58
2022/01/20 01:41:27;;;;;;;6.43;1.60;;;2.70;99.90;;;;;;4994268;28;20723;-59
2022/01/20 01:43:54;;;;;;;5.65;1.55;;;2.80;99.90;;;;;;4994549;28;20169;-60
2022/01/20 01:46:19;;;;;;;3.42;0.93;;;2.60;99.90;;;;;;4994341;28;20221;-60
2022/01/20 01:48:45;;;;;;;6.85;1.40;;;2.30;99.90;;;;;;4994284;28;20250;-59
2022/01/20 01:51:11;;;;;;;6.00;1.30;;;2.20;99.90;;;;;;4994378;28;20175;-60
2022/01/20 01:53:37;;;;;;;7.20;1.52;;;2.10;99.90;;;;;;4994155;28;20206;-61
2022/01/20 01:56:04;;;;;;;7.93;1.67;;;2.10;99.90;;;;;;4994025;28;20535;-61
2022/01/20 01:58:29;;;;;;;4.63;1.88;;;2.10;99.90;;;;;;4994078;28;20171;-61
2022/01/20 02:00:56;;;;;;;11.48;2.47;;;2.20;99.90;;;;;;4993944;28;20167;-60
2022/01/20 02:03:23;;;;;;;6.38;1.67;;;2.30;99.90;;;;;;4994578;28;20170;-59
2022/01/20 02:06:21;;;;;;;10.05;1.60;;;2.40;99.90;;;;;;4994033;28;20162;-61
2022/01/20 02:25:16;;;;;;;7.55;1.60;;;2.70;99.90;;;;;;5378562;24;985504;31
2022/01/20 02:37:22;;;;;;;4.60;1.27;;;2.20;99.90;;;;;;6199922;22;21056;-60
2022/01/20 02:45:21;;;;;;;7.75;1.50;;;1.90;99.90;;;;;;6346976;22;20194;-60
2022/01/20 02:59:46;;;;;;;6.30;1.40;;;1.80;99.90;;;;;;6173718;22;20572;31
2022/01/20 03:04:39;;;;;;;6.63;1.50;;;1.70;99.90;;;;;;6094227;22;1143668;-60
2022/01/20 03:12:39;;;;;;;6.18;1.20;;;1.90;99.90;;;;;;6234738;22;20516;31
2022/01/20 03:20:14;;;;;;;5.13;1.20;;;2.10;99.90;;;;;;6326262;22;20513;31
2022/01/20 03:27:40;;;;;;;12.70;1.65;;;2.10;99.90;;;;;;6322838;22;20533;31
2022/01/20 03:30:06;;;;;;;6.53;1.10;;;2.10;99.90;;;;;;6320759;22;20172;31
2022/01/20 03:51:40;;;;;;;2.33;0.82;;;2.00;98.40;;;;;;6138979;23;20212;-60
2022/01/20 03:56:37;;;;;;;4.53;0.70;;;2.00;98.20;;;;;;5831960;22;21363;-64
2022/01/20 04:04:25;;;;;;;2.42;0.70;;;1.80;98.20;;;;;;6175369;22;20549;31
2022/01/20 04:06:50;;;;;;;6.38;1.10;;;1.80;98.50;;;;;;6144251;23;20204;-60
2022/01/20 04:09:16;;;;;;;2.92;0.80;;;1.70;99.90;;;;;;6146568;23;20804;31
2022/01/20 04:13:22;;;;;;;1.17;0.35;;;1.60;99.90;;;;;;5446911;22;20674;-61
2022/01/20 04:20:39;;;;;;;3.58;0.75;;;0.20;99.90;;;;;;5452092;23;20181;-61
2022/01/20 04:25:49;;;;;;;3.83;0.70;;;-0.20;99.90;;;;;;5668025;22;20623;31
2022/01/20 04:28:14;;;;;;;5.28;0.93;;;-0.40;99.90;;;;;;5616626;22;20190;-62
2022/01/20 04:35:06;;;;;;;4.53;0.82;;;-0.50;99.90;;;;;;5695274;22;20564;31
2022/01/20 04:37:31;;;;;;;6.10;1.17;;;-0.50;99.90;;;;;;5472819;23;20203;31
2022/01/20 04:45:43;;;;;;;2.10;0.40;;;-0.20;99.90;;;;;;5632166;22;20211;-61
2022/01/20 05:01:08;;;;;;;2.28;0.57;;;0.00;99.90;;;;;;6262960;22;20816;-60
2022/01/20 05:03:34;;;;;;;4.05;0.65;;;0.00;99.90;;;;;;6241855;22;20964;-60
2022/01/20 05:12:21;;;;;;;3.67;0.88;;;0.30;99.90;;;;;;6344670;22;20649;-60
2022/01/20 05:19:32;;;;;;;5.15;1.00;;;0.60;99.90;;;;;;6245308;22;20197;-61
2022/01/20 05:21:58;;;;;;;1.10;0.55;;;0.70;99.90;;;;;;6259804;23;20163;-61
2022/01/20 05:24:24;;;;;;;3.00;0.80;;;0.70;99.90;;;;;;6261918;23;20171;-60
2022/01/20 05:26:50;;;;;;;2.05;0.52;;;0.70;99.90;;;;;;6262316;23;20586;-61
2022/01/20 05:29:20;;;;;;;6.18;0.77;;;0.70;99.90;;;;;;6261406;23;20148;-61
2022/01/20 05:31:45;;;;;;;2.15;0.45;;;0.70;99.90;;;;;;6261743;23;20155;-63
2022/01/20 05:34:11;;;;;;;3.22;0.65;;;0.70;99.60;;;;;;6261310;23;20570;-62
2022/01/20 05:36:36;;;;;;;3.03;0.60;;;0.80;99.30;;;;;;6260833;23;20163;-62
2022/01/20 05:39:03;;;;;;;4.00;0.63;;;0.80;99.00;;;;;;6266773;23;20139;-61
2022/01/20 05:41:29;;;;;;;3.92;1.00;;;0.80;98.30;;;;;;6239897;23;20140;-62
2022/01/20 05:43:56;;;;;;;2.85;1.25;;;0.90;98.40;;;;;;6238363;23;20214;-61
2022/01/20 05:46:24;;;;;;;3.13;0.50;;;0.90;98.20;;;;;;6265550;23;20209;-61
2022/01/20 05:48:50;;;;;;;2.08;0.60;;;0.90;98.00;;;;;;6272222;23;20144;-62
2022/01/20 05:51:16;;;;;;;3.40;1.00;;;0.90;98.00;;;;;;6270013;23;20140;-62
2022/01/20 05:53:41;;;;;;;4.15;0.82;;;0.90;98.20;;;;;;6259758;23;20146;-61
2022/01/20 05:56:07;;;;;;;4.10;0.60;;;0.90;98.00;;;;;;6255448;23;20230;-61
2022/01/20 05:58:37;;;;;;;1.63;0.63;;;1.00;97.70;;;;;;6255285;23;20136;-62
2022/01/20 06:01:04;;;;;;;1.92;0.60;;;1.00;97.10;;;;;;6255324;23;20144;-61
2022/01/20 06:03:36;;;;;;;4.60;1.15;;;1.00;97.10;;;;;;6255066;23;20564;-61
2022/01/20 06:06:05;;;;;;;0.60;0.30;;;1.10;97.30;;;;;;6255727;23;20521;-60
2022/01/20 06:08:32;;;;;;;6.13;0.60;;;1.10;97.30;;;;;;6256744;23;20144;-60
2022/01/20 06:10:57;;;;;;;1.48;0.70;;;1.00;97.30;;;;;;6256929;23;20161;-61
2022/01/20 06:13:23;;;;;;;1.48;0.50;;;1.10;97.40;;;;;;6237885;23;20190;-62
2022/01/20 06:15:48;;;;;;;2.75;0.90;;;1.10;97.40;;;;;;6258616;23;20178;-59
2022/01/20 06:18:14;;;;;;;1.15;0.52;;;1.10;97.60;;;;;;6255752;23;20323;-60
2022/01/20 06:20:40;;;;;;;5.07;0.70;;;1.10;97.70;;;;;;6256142;23;20544;-61
2022/01/20 06:23:07;;;;;;;2.25;0.70;;;1.10;97.60;;;;;;6256230;23;20136;-60
2022/01/20 06:25:33;;;;;;;2.60;0.90;;;1.10;97.80;;;;;;6257862;23;20215;-60
2022/01/20 06:27:59;;;;;;;2.78;0.80;;;1.10;97.80;;;;;;6253264;23;20155;-62
2022/01/20 06:30:25;;;;;;;6.15;1.10;;;1.10;97.90;;;;;;6253024;23;20144;-61
2022/01/20 06:32:51;;;;;;;6.47;0.88;;;1.10;98.10;;;;;;6253267;23;20227;-60
2022/01/20 06:35:17;;;;;;;4.63;0.80;;;1.10;98.20;;;;;;6248086;23;20168;-61
2022/01/20 06:37:42;;;;;;;2.63;0.80;;;1.10;98.10;;;;;;6248259;23;20179;-59
2022/01/20 06:40:09;;;;;;;5.50;0.73;;;1.20;98.20;;;;;;6248062;23;20144;-60
2022/01/20 06:42:35;;;;;;;10.85;0.95;;;1.20;98.30;;;;;;6247635;23;20281;-61
2022/01/20 06:45:03;;;;;;;3.05;0.80;;;1.20;98.30;;;;;;6247804;23;20558;-61
2022/01/20 06:47:28;;;;;;;4.75;0.98;;;1.20;98.10;;;;;;6247826;23;20144;-61
2022/01/20 06:49:54;;;;;;;6.70;0.98;;;1.20;98.10;;;;;;6248072;23;20194;-60
2022/01/20 06:52:19;;;;;;;6.47;0.68;;;1.20;98.30;;;;;;6247858;23;20152;-60
2022/01/20 06:54:45;;;;;;;1.38;0.45;;;1.20;98.50;;;;;;6247549;23;20152;-60
2022/01/20 06:57:10;;;;;;;3.85;1.35;;;1.20;98.90;;;;;;6247992;23;20144;-60
2022/01/20 06:59:36;;;;;;;4.43;0.70;;;1.20;99.10;;;;;;6248201;23;20151;-60
2022/01/20 07:02:01;;;;;;;5.43;1.08;;;1.20;99.20;;;;;;6248121;23;20140;-59
2022/01/20 07:04:27;;;;;;;5.10;1.20;;;1.20;99.40;;;;;;6247821;23;20495;-59
2022/01/20 07:06:54;;;;;;;3.92;1.40;;;1.20;99.50;;;;;;6247874;23;20144;-60
2022/01/20 07:09:19;;;;;;;3.40;1.13;;;1.20;99.70;;;;;;6247889;23;20163;-60
2022/01/20 07:11:45;;;;;;;3.03;0.98;;;1.20;99.90;;;;;;6247730;23;20553;-60
2022/01/20 07:14:10;;;;;;;5.43;1.13;;;1.30;99.90;;;;;;6247510;23;20549;-59
2022/01/20 07:16:36;;;;;;;4.05;0.93;;;1.30;99.90;;;;;;6247497;23;20168;-60
2022/01/20 07:19:02;;;;;;;4.07;1.00;;;1.30;99.90;;;;;;6247309;23;20156;-60
2022/01/20 07:21:27;;;;;;;4.18;0.73;;;1.40;99.90;;;;;;6247291;23;20144;-62
2022/01/20 07:23:53;;;;;;;4.22;0.90;;;1.40;99.90;;;;;;6247313;23;20549;-60
2022/01/20 07:26:19;;;;;;;7.72;1.52;;;1.40;99.90;;;;;;6247314;23;20145;-60
2022/01/20 07:28:44;;;;;;;3.92;1.23;;;1.50;99.90;;;;;;6247443;23;20209;-59
2022/01/20 07:31:10;;;;;;;5.50;1.05;;;1.50;99.90;;;;;;6247329;23;20564;-61
2022/01/20 07:33:36;;;;;;;7.82;1.67;;;1.50;99.90;;;;;;6247671;23;20148;-61
2022/01/20 07:36:03;;;;;;;5.50;1.20;;;1.60;99.90;;;;;;6247159;23;20183;-60
2022/01/20 07:38:29;;;;;;;3.28;0.85;;;1.70;99.90;;;;;;6246722;23;20144;-61
2022/01/20 07:40:55;;;;;;;8.88;1.70;;;1.70;99.90;;;;;;6247457;23;20144;-62
2022/01/20 07:43:20;;;;;;;5.03;0.93;;;1.70;99.90;;;;;;6247210;23;20548;-62
2022/01/20 07:45:46;;;;;;;4.55;1.00;;;1.80;99.90;;;;;;6247232;23;20155;-62
2022/01/20 07:48:12;;;;;;;4.43;0.93;;;1.80;99.90;;;;;;6247221;23;20425;-62
2022/01/20 07:50:37;;;;;;;6.85;1.40;;;1.80;99.90;;;;;;6247116;23;20576;-62
2022/01/20 07:53:03;;;;;;;9.18;1.40;;;1.80;99.90;;;;;;6247579;23;20575;-61
2022/01/20 07:55:29;;;;;;;7.97;1.42;;;1.80;99.90;;;;;;6246951;23;20231;-62
2022/01/20 07:57:55;;;;;;;5.15;1.08;;;1.80;99.90;;;;;;6247000;23;20150;-62
2022/01/20 08:00:21;;;;;;;4.65;1.33;;;1.80;99.90;;;;;;6247014;23;20163;-62
2022/01/20 08:02:47;;;;;;;5.18;1.45;;;1.80;99.90;;;;;;6221103;23;20206;-61
2022/01/20 08:05:13;;;;;;;9.27;1.30;;;1.90;99.90;;;;;;6247300;23;20156;-61
2022/01/20 08:07:39;;;;;;;5.97;1.58;;;1.90;99.90;;;;;;6220934;23;20148;-62
2022/01/20 08:10:05;;;;;;;8.18;1.27;;;2.00;99.90;;;;;;6247215;23;20243;-61
2022/01/20 08:12:31;;;;;;;5.22;1.38;;;2.00;99.90;;;;;;6246898;23;20496;-62
2022/01/20 08:14:58;;;;;;;7.13;1.50;;;2.00;99.90;;;;;;6246690;23;20212;-59
2022/01/20 08:17:24;;;;;;;5.82;1.23;;;2.00;99.90;;;;;;6247087;23;20140;-59
2022/01/20 08:19:49;;;;;;;5.22;1.30;;;2.00;99.90;;;;;;6246463;23;20156;-60
2022/01/20 08:22:15;;;;;;;8.00;2.03;;;2.10;99.90;;;;;;6246895;23;20140;-60
2022/01/20 08:24:41;;;;;;;4.75;1.05;;;2.00;99.90;;;;;;6246976;23;20181;-60
2022/01/20 08:27:10;;;;;;;8.43;1.25;;;2.10;99.90;;;;;;6246836;23;20151;-60
2022/01/20 08:29:36;;;;;;;4.25;1.10;;;2.10;99.90;;;;;;6246450;23;20140;-60
2022/01/20 08:32:03;;;;;;;7.07;1.67;;;2.10;99.90;;;;;;6246587;23;20151;-59
2022/01/20 08:34:29;;;;;;;3.28;1.08;;;2.10;99.90;;;;;;6220407;23;20396;-60
2022/01/20 08:36:55;;;;;;;7.95;1.60;;;2.10;99.90;;;;;;6246473;23;20572;-60
2022/01/20 08:41:58;;;;;;;6.22;0.98;;;2.20;99.90;;;;;;6222453;23;20163;-60
2022/01/20 08:44:23;;;;;;;8.50;1.40;;;2.20;99.90;;;;;;6220390;23;20140;-61
2022/01/20 08:46:49;;;;;;;5.55;1.13;;;2.20;99.90;;;;;;6246657;23;20155;-60
2022/01/20 08:49:15;;;;;;;4.63;1.05;;;2.20;99.90;;;;;;6246571;23;20148;-59
2022/01/20 08:51:40;;;;;;;5.68;1.15;;;2.30;99.90;;;;;;6246328;23;20148;-59
2022/01/20 08:54:06;;;;;;;6.45;1.40;;;2.30;99.90;;;;;;6246312;23;20140;-59
2022/01/20 08:56:34;;;;;;;6.53;1.67;;;2.30;99.90;;;;;;6246457;23;20449;-60
2022/01/20 08:59:00;;;;;;;5.50;1.60;;;2.30;99.90;;;;;;6246659;23;20186;-59
2022/01/20 09:01:26;;;;;;;6.43;1.15;;;2.40;99.90;;;;;;6246442;23;20144;-59
2022/01/20 09:03:51;;;;;;;6.53;1.45;;;2.40;99.90;;;;;;6246473;23;20147;-59
2022/01/20 09:06:17;;;;;;;8.18;1.67;;;2.40;99.90;;;;;;6246354;23;20505;-58
2022/01/20 09:08:42;;;;;;;6.25;1.40;;;2.40;99.90;;;;;;6246445;23;20148;-60
2022/01/20 09:11:18;;;;;;;4.38;1.83;;;2.50;99.90;;;;;;6246259;23;20141;-59
2022/01/20 09:16:28;;;;;;;7.95;1.40;;;2.50;99.90;;;;;;6246390;23;20528;-59
2022/01/20 09:18:54;;;;;;;7.00;1.73;;;2.50;99.90;;;;;;6246275;23;20156;-59
2022/01/20 09:21:22;;;;;;;6.25;1.42;;;2.50;99.90;;;;;;6246858;23;20144;-57
2022/01/20 09:23:48;;;;;;;8.10;1.40;;;2.50;99.90;;;;;;6247540;23;20144;-58
2022/01/20 09:26:14;;;;;;;8.02;1.95;;;2.50;99.90;;;;;;6246931;23;20186;-60
2022/01/20 09:28:39;;;;;;;11.07;1.90;;;2.50;99.90;;;;;;6248784;23;20158;-61
2022/01/20 09:31:06;;;;;;;8.57;1.65;;;2.50;99.90;;;;;;6262297;23;20227;-61
2022/01/20 09:33:32;;;;;;;8.50;1.58;;;2.50;99.90;;;;;;6247184;23;20557;-60
2022/01/20 09:35:58;;;;;;;7.03;1.30;;;2.40;99.90;;;;;;6246175;23;20563;-60
2022/01/20 09:38:24;;;;;;;4.57;1.33;;;2.40;99.90;;;;;;6246613;23;20439;-59
2022/01/20 09:40:50;;;;;;;4.90;1.67;;;2.40;99.90;;;;;;6246690;23;20144;-60
2022/01/20 09:43:16;;;;;;;6.72;1.73;;;2.50;99.90;;;;;;6246705;23;20235;-60
2022/01/20 09:45:44;;;;;;;7.00;1.80;;;2.50;99.90;;;;;;6246099;23;20602;-59
2022/01/20 09:48:10;;;;;;;7.15;1.92;;;2.50;99.90;;;;;;6246243;23;20556;-59
2022/01/20 09:50:36;;;;;;;7.22;1.60;;;2.60;99.90;;;;;;6246564;23;20279;-60
2022/01/20 09:53:02;;;;;;;8.77;1.63;;;2.60;99.90;;;;;;6246220;23;20517;-60
2022/01/20 09:55:28;;;;;;;7.65;1.35;;;2.60;99.90;;;;;;6246358;23;20172;-60
2022/01/20 09:57:54;;;;;;;8.70;1.90;;;2.60;99.90;;;;;;6246378;23;20140;-60
2022/01/20 10:00:20;;;;;;;7.72;1.90;;;2.70;99.90;;;;;;6246015;23;20136;-60
2022/01/20 10:02:51;;;;;;;6.50;1.35;;;2.70;99.90;;;;;;6247313;23;20137;-61
2022/01/20 10:05:25;;;;;;;8.40;1.50;;;2.80;99.90;;;;;;6248249;23;20159;-60
2022/01/20 10:07:50;;;;;;;6.90;1.58;;;2.80;99.90;;;;;;6248002;23;20219;-60
2022/01/20 10:10:16;;;;;;;9.93;2.13;;;2.90;99.90;;;;;;6247930;23;20591;-60
2022/01/20 10:12:41;;;;;;;7.80;1.15;;;2.90;99.90;;;;;;6248055;23;20155;-56
2022/01/20 10:15:11;;;;;;;7.82;1.60;;;3.00;99.90;;;;;;6248169;23;20168;-59
2022/01/20 10:17:36;;;;;;;4.10;1.30;;;2.90;99.90;;;;;;6248223;23;20148;-60
2022/01/20 10:20:07;;;;;;;5.03;1.13;;;2.90;99.90;;;;;;6247837;23;20163;-59
2022/01/20 10:22:35;;;;;;;9.75;1.85;;;2.90;99.90;;;;;;6248257;23;20144;-60
2022/01/20 10:25:02;;;;;;;6.13;1.23;;;2.80;99.90;;;;;;6248187;23;20148;-60
2022/01/20 10:27:30;;;;;;;5.22;1.20;;;2.80;99.90;;;;;;6247755;23;20737;-59
2022/01/20 10:30:01;;;;;;;10.50;1.60;;;2.80;99.90;;;;;;6248182;23;20149;-58
2022/01/20 10:32:37;;;;;;;6.82;1.35;;;2.80;99.90;;;;;;6247973;23;20521;-59
2022/01/20 10:35:04;;;;;;;7.32;1.10;;;2.80;99.90;;;;;;6247919;23;20164;-59
2022/01/20 10:37:30;;;;;;;7.68;1.55;;;2.80;99.90;;;;;;6248034;23;20549;-59
2022/01/20 10:40:06;;;;;;;9.20;1.48;;;2.80;99.90;;;;;;6247759;23;20148;-59
2022/01/20 10:42:42;;;;;;;7.65;1.98;;;2.80;99.90;;;;;;6248075;23;20540;-59
2022/01/20 10:45:18;;;;;;;6.97;1.80;;;2.80;99.90;;;;;;6221750;23;20137;-59
2022/01/20 10:47:48;;;;;;;6.25;1.38;;;2.80;99.90;;;;;;6248066;23;20221;-59
2022/01/20 10:50:16;;;;;;;8.10;0.93;;;2.80;99.90;;;;;;6247722;23;20197;-59
2022/01/20 10:52:44;;;;;;;5.75;1.35;;;2.80;99.90;;;;;;6247947;23;20148;-60
2022/01/20 10:55:28;;;;;;;10.75;1.58;;;2.80;99.90;;;;;;6247831;23;20195;-59
2022/01/20 10:57:55;;;;;;;11.10;1.65;;;2.80;99.90;;;;;;6247866;23;20540;-59
2022/01/20 11:00:22;;;;;;;9.73;1.70;;;2.80;99.90;;;;;;6247424;23;20263;-58
2022/01/20 11:02:56;;;;;;;8.10;1.98;;;2.80;99.90;;;;;;6247529;23;20223;-59
2022/01/20 11:05:21;;;;;;;10.60;1.55;;;2.80;99.90;;;;;;6247361;23;20148;-60
2022/01/20 11:07:48;;;;;;;4.88;0.90;;;2.90;99.90;;;;;;6247978;23;20156;-59
2022/01/20 11:10:15;;;;;;;9.57;1.88;;;2.90;99.90;;;;;;6247327;23;20152;-59
2022/01/20 11:12:41;;;;;;;4.53;1.45;;;3.00;99.90;;;;;;6247611;23;20159;-59
2022/01/20 11:15:10;;;;;;;9.93;2.00;;;3.00;99.90;;;;;;6247592;23;20187;-59
2022/01/20 11:17:39;;;;;;;5.55;1.65;;;3.10;99.90;;;;;;6247624;23;20223;-60
2022/01/20 11:20:11;;;;;;;7.13;1.70;;;3.10;99.90;;;;;;6247344;23;20183;-60
2022/01/20 11:22:49;;;;;;;11.85;1.92;;;3.10;99.90;;;;;;6247417;23;20434;-60
2022/01/20 11:25:14;;;;;;;7.30;1.40;;;3.10;99.90;;;;;;6247374;22;20263;-58
2022/01/20 11:27:42;;;;;;;8.77;1.30;;;3.20;99.90;;;;;;6247421;23;20144;-58
2022/01/20 11:30:18;;;;;;;6.20;1.20;;;3.20;99.90;;;;;;6247546;23;20144;-58
2022/01/20 11:32:56;;;;;;;7.45;1.90;;;3.30;99.90;;;;;;6220799;23;20189;-60
2022/01/20 11:35:21;;;;;;;7.13;1.50;;;3.30;99.90;;;;;;6247687;23;20152;-60
2022/01/20 11:37:58;;;;;;;6.70;1.83;;;3.30;99.90;;;;;;6248148;23;20163;-60
2022/01/20 11:40:25;;;;;;;4.95;1.98;;;3.30;99.90;;;;;;6247864;23;20194;-60
2022/01/20 11:42:59;;;;;;;4.20;1.33;;;3.30;99.90;;;;;;6247998;23;20448;-60
2022/01/20 11:45:54;;;;;;;4.63;1.17;;;3.30;99.90;;;;;;6247534;23;20182;-60
2022/01/20 11:48:22;;;;;;;6.00;2.10;;;3.30;99.90;;;;;;6242744;23;20164;-59
2022/01/20 11:51:01;;;;;;;5.18;1.30;;;3.20;99.90;;;;;;6247805;23;20144;-59
2022/01/20 11:53:26;;;;;;;5.60;1.10;;;3.20;99.90;;;;;;6248439;23;20207;-59
2022/01/20 11:55:54;;;;;;;4.93;1.10;;;3.10;99.90;;;;;;6248011;23;20182;-61
2022/01/20 11:58:22;;;;;;;6.72;1.63;;;3.10;99.90;;;;;;6247842;23;20152;-60
2022/01/20 12:01:08;;;;;;;6.30;1.48;;;3.10;99.90;;;;;;6247574;23;20363;-60
2022/01/20 12:03:36;;;;;;;6.68;1.63;;;3.10;99.90;;;;;;6247923;23;20139;-60
2022/01/20 12:06:04;;;;;;;6.80;1.38;;;3.10;99.90;;;;;;6248237;23;20219;-59
2022/01/20 12:08:30;;;;;;;7.90;1.40;;;3.10;99.90;;;;;;6247460;23;20185;-60
2022/01/20 12:10:58;;;;;;;4.15;1.17;;;3.10;99.90;;;;;;6247596;23;20148;-60
2022/01/20 12:13:24;;;;;;;6.75;1.42;;;3.00;99.90;;;;;;6247908;23;20168;-59
2022/01/20 12:15:52;;;;;;;4.45;1.13;;;3.00;99.90;;;;;;6247974;23;20564;-59
2022/01/20 12:18:17;;;;;;;3.70;1.35;;;3.00;99.90;;;;;;6247306;23;20136;-58
2022/01/20 12:20:43;;;;;;;4.13;1.33;;;3.00;99.90;;;;;;6247312;23;20133;-59
2022/01/20 12:23:09;;;;;;;7.40;1.65;;;3.00;99.90;;;;;;6247720;23;20189;-59
2022/01/20 12:25:36;;;;;;;9.57;1.52;;;3.00;99.90;;;;;;6247535;23;20140;-60
2022/01/20 12:28:10;;;;;;;8.30;1.73;;;3.00;99.90;;;;;;6246706;23;20424;-60
2022/01/20 12:30:37;;;;;;;8.38;1.35;;;3.00;99.90;;;;;;6247495;23;20144;-60
2022/01/20 12:33:12;;;;;;;6.15;1.35;;;3.00;99.90;;;;;;6246910;23;20168;-60
2022/01/20 12:35:41;;;;;;;6.53;1.73;;;2.90;99.90;;;;;;6246752;23;20510;-60
2022/01/20 12:38:26;;;;;;;5.43;1.20;;;2.90;99.90;;;;;;6247628;23;20172;-60
2022/01/20 12:41:00;;;;;;;6.53;1.58;;;2.80;99.90;;;;;;6248240;23;20413;-59
2022/01/20 12:43:48;;;;;;;5.70;1.67;;;2.80;99.90;;;;;;6248334;23;20556;-59
2022/01/20 12:46:17;;;;;;;3.00;1.10;;;2.80;99.90;;;;;;6248210;23;20139;-59
2022/01/20 12:49:09;;;;;;;8.25;1.45;;;2.80;99.90;;;;;;6248148;23;20231;-59
2022/01/20 12:51:39;;;;;;;9.27;1.48;;;2.80;99.90;;;;;;6248080;23;20140;-59
2022/01/20 12:54:13;;;;;;;8.00;1.50;;;2.80;99.90;;;;;;6247209;23;20584;-59
2022/01/20 12:56:43;;;;;;;5.88;1.10;;;2.90;99.90;;;;;;6247649;23;20160;-59
2022/01/20 12:59:09;;;;;;;6.05;1.65;;;2.90;99.90;;;;;;6248085;23;20149;-59
2022/01/20 13:01:42;;;;;;;5.38;1.17;;;3.00;99.90;;;;;;6247507;23;20318;-59
2022/01/20 13:04:09;;;;;;;8.68;1.58;;;3.10;99.90;;;;;;6247077;23;20302;-60
2022/01/20 13:06:36;;;;;;;8.43;1.20;;;3.10;99.90;;;;;;6246712;23;20152;-60
2022/01/20 13:09:06;;;;;;;5.55;1.52;;;3.20;99.90;;;;;;6220318;23;20148;-60
2022/01/20 13:11:38;;;;;;;7.28;2.20;;;3.20;99.90;;;;;;6246504;23;20222;-60
2022/01/20 13:14:04;;;;;;;5.95;1.15;;;3.10;99.90;;;;;;6246401;23;20513;-60
2022/01/20 13:16:31;;;;;;;4.70;1.00;;;3.00;99.90;;;;;;6246398;23;20168;-60
2022/01/20 13:18:59;;;;;;;6.05;1.05;;;2.90;99.90;;;;;;6246436;23;20198;-59
2022/01/20 13:21:45;;;;;;;5.78;1.27;;;2.80;99.80;;;;;;6246350;23;20140;-59
2022/01/20 13:24:12;;;;;;;7.10;0.90;;;2.80;99.90;;;;;;6246869;23;20128;-60
2022/01/20 13:26:53;;;;;;;8.25;1.80;;;2.80;99.90;;;;;;6247054;23;20178;-60
2022/01/20 13:29:20;;;;;;;4.70;1.10;;;2.70;99.90;;;;;;6246641;23;20136;-60
2022/01/20 13:31:46;;;;;;;6.20;1.50;;;2.70;99.90;;;;;;6247341;23;20195;-59
2022/01/20 13:34:14;;;;;;;2.78;1.30;;;2.70;99.90;;;;;;6248187;23;20148;-59
2022/01/20 13:36:48;;;;;;;3.70;0.85;;;2.70;99.90;;;;;;6247160;23;20191;-59
2022/01/20 13:39:14;;;;;;;2.00;0.65;;;2.70;99.90;;;;;;6249830;23;20207;-59
2022/01/20 13:41:42;;;;;;;6.32;1.00;;;2.70;99.70;;;;;;6250537;23;20491;-60
2022/01/20 13:47:08;;;;;;;4.50;1.08;;;2.60;99.90;;;;;;6249606;23;20151;-59
2022/01/20 13:49:34;;;;;;;5.40;0.90;;;2.60;99.90;;;;;;6249662;23;20152;-59
2022/01/20 13:52:06;;;;;;;3.50;0.77;;;2.60;99.90;;;;;;6249435;23;20286;-60
2022/01/20 13:54:39;;;;;;;6.13;0.90;;;2.50;99.90;;;;;;6248997;23;20144;-59
2022/01/20 13:57:05;;;;;;;4.82;1.05;;;2.50;99.90;;;;;;6248949;23;20153;-59
2022/01/20 13:59:30;;;;;;;5.55;1.17;;;2.50;99.90;;;;;;6248705;23;20136;-59
2022/01/20 14:01:56;;;;;;;4.63;1.45;;;2.40;99.90;;;;;;6249380;23;20148;-59
2022/01/20 14:04:22;;;;;;;4.05;0.70;;;2.40;99.90;;;;;;6248619;23;20136;-60
2022/01/20 14:06:47;;;;;;;7.28;1.35;;;2.40;99.90;;;;;;6248949;23;20149;-58
2022/01/20 14:09:13;;;;;;;6.65;0.80;;;2.30;99.90;;;;;;6248613;23;20255;-60
2022/01/20 14:11:39;;;;;;;6.75;1.35;;;2.30;99.90;;;;;;6249219;23;20276;-60
2022/01/20 14:14:08;;;;;;;6.80;1.27;;;2.30;99.90;;;;;;6248693;23;20570;-60
2022/01/20 14:16:33;;;;;;;4.82;1.25;;;2.30;99.90;;;;;;6249127;23;20164;-59
2022/01/20 14:18:59;;;;;;;5.55;1.08;;;2.30;99.90;;;;;;6248756;23;20263;-60
2022/01/20 14:21:25;;;;;;;6.68;1.02;;;2.30;99.90;;;;;;6250135;23;20186;-61
2022/01/20 14:23:50;;;;;;;4.32;1.00;;;2.30;99.90;;;;;;6249606;23;20145;-60
2022/01/20 14:26:22;;;;;;;4.65;1.17;;;2.30;99.90;;;;;;6248965;23;20148;-59
2022/01/20 14:28:48;;;;;;;6.45;1.08;;;2.30;99.90;;;;;;6249003;23;20135;-60
2022/01/20 14:31:14;;;;;;;2.38;0.80;;;2.30;99.90;;;;;;6249215;23;20448;-60
2022/01/20 14:33:39;;;;;;;6.53;1.42;;;2.30;99.90;;;;;;6248453;23;20615;-59
2022/01/20 14:36:05;;;;;;;5.78;1.00;;;2.30;99.90;;;;;;6248361;23;20302;-60
2022/01/20 14:38:31;;;;;;;3.47;0.98;;;2.40;99.90;;;;;;6249422;23;20151;-61
2022/01/20 14:40:56;;;;;;;7.95;1.33;;;2.40;99.90;;;;;;6249885;23;20544;-60
2022/01/20 14:43:22;;;;;;;7.40;1.75;;;2.40;99.90;;;;;;6248991;23;20544;-59
2022/01/20 14:45:49;;;;;;;9.15;1.30;;;2.50;99.90;;;;;;6249432;23;20148;-61
2022/01/20 14:48:17;;;;;;;12.52;1.88;;;2.60;99.90;;;;;;6249395;23;20239;-60
2022/01/20 14:50:42;;;;;;;5.13;0.95;;;2.60;99.90;;;;;;6249659;23;20180;-61
2022/01/20 14:53:08;;;;;;;3.55;0.95;;;2.60;99.90;;;;;;6249119;23;20202;-60
2022/01/20 14:55:34;;;;;;;6.95;1.23;;;2.60;99.90;;;;;;6249012;23;20218;-60
2022/01/20 14:57:59;;;;;;;3.10;1.05;;;2.60;99.90;;;;;;6248641;23;20202;-60
2022/01/20 15:00:25;;;;;;;3.63;1.80;;;2.70;99.90;;;;;;6248427;23;20219;-60
2022/01/20 15:02:50;;;;;;;4.57;1.17;;;2.60;99.90;;;;;;6249048;23;20186;-60
2022/01/20 15:05:18;;;;;;;5.50;1.02;;;2.60;99.60;;;;;;6248301;23;20217;-61
2022/01/20 15:07:44;;;;;;;3.95;0.80;;;2.60;99.50;;;;;;6248932;23;20294;-59
2022/01/20 15:10:12;;;;;;;4.70;0.77;;;2.60;99.20;;;;;;6248619;23;20160;-61
2022/01/20 15:12:38;;;;;;;3.67;1.13;;;2.60;99.10;;;;;;6248607;23;20175;-59
2022/01/20 15:15:05;;;;;;;4.00;1.02;;;2.60;99.20;;;;;;6248690;23;20144;-60
2022/01/20 15:17:30;;;;;;;3.08;1.17;;;2.60;98.80;;;;;;6248267;23;20576;-61
2022/01/20 15:19:56;;;;;;;5.40;0.98;;;2.60;98.00;;;;;;6248297;23;20152;-61
2022/01/20 15:22:21;;;;;;;3.83;0.85;;;2.60;97.40;;;;;;6248434;23;20140;-59
2022/01/20 15:24:47;;;;;;;3.72;0.73;;;2.50;96.90;;;;;;6248156;23;20604;-59
2022/01/20 15:27:12;;;;;;;9.05;0.88;;;2.50;96.60;;;;;;6248304;23;20140;-59
2022/01/20 15:29:38;;;;;;;4.15;0.80;;;2.50;96.60;;;;;;6248634;23;20148;-60
2022/01/20 15:32:04;;;;;;;6.63;0.90;;;2.50;96.90;;;;;;6248946;23;20151;-61
2022/01/20 15:34:29;;;;;;;6.00;0.93;;;2.50;97.00;;;;;;6248897;23;20159;-59
2022/01/20 15:36:55;;;;;;;3.15;0.80;;;2.40;97.20;;;;;;6248953;23;20164;-60
2022/01/20 15:39:21;;;;;;;3.78;0.80;;;2.40;97.30;;;;;;6249093;23;20136;-59
2022/01/20 15:41:48;;;;;;;5.72;0.75;;;2.30;97.50;;;;;;6248749;23;20150;-61
2022/01/20 15:44:13;;;;;;;3.97;0.77;;;2.30;97.60;;;;;;6247352;23;20258;-60
2022/01/20 15:46:39;;;;;;;2.70;0.70;;;2.20;97.60;;;;;;6247185;23;20148;-61
2022/01/20 15:49:06;;;;;;;3.10;0.70;;;2.20;97.60;;;;;;6246935;23;20151;-60
2022/01/20 15:51:31;;;;;;;4.82;0.90;;;2.20;97.70;;;;;;6246952;23;20144;-61